Time,TemperatureF,DewpointF,PressureIn,WindDirection,WindDirectionDegrees,WindSpeedMPH,WindSpeedGustMPH,Humidity,HourlyPrecipIn,Conditions,Clouds,dailyrainin,SoftwareType,DateUTC
2013-04-01 00:03:00,59.5,25.5,29.76,WSW,258,4.0,7.0,27,0.00,,,-99.99,Weather View 32 v60,2013-04-01 04:03:00,
2013-04-01 00:04:00,59.5,25.5,29.73,West,267,3.0,7.0,27,0.00,,,-99.99,Weather View 32 v60,2013-04-01 04:04:00,
2013-04-01 00:09:00,59.5,26.3,29.73,West,274,4.0,7.0,28,0.00,,,-99.99,Weather View 32 v60,2013-04-01 04:09:00,
2013-04-01 00:14:00,59.5,26.3,29.73,WSW,253,6.0,7.0,28,0.00,,,-99.99,Weather View 32 v60,2013-04-01 04:14:00,
2013-04-01 00:19:00,59.4,26.2,29.73,WSW,251,4.0,7.0,28,0.00,,,-99.99,Weather View 32 v60,2013-04-01 04:19:00,
2013-04-01 00:24:00,59.4,26.2,29.73,WSW,258,5.0,7.0,28,0.00,,,-99.99,Weather View 32 v60,2013-04-01 04:24:00,
2013-04-01 00:29:00,59.4,27.0,29.73,West,280,4.0,6.0,29,0.00,,,-99.99,Weather View 32 v60,2013-04-01 04:29:00,
2013-04-01 00:39:00,59.4,27.0,29.73,West,268,4.0,6.0,29,0.00,,,-99.99,Weather View 32 v60,2013-04-01 04:39:00,
2013-04-01 00:44:00,59.2,26.9,29.73,WSW,237,3.0,6.0,29,0.00,,,-99.99,Weather View 32 v60,2013-04-01 04:44:00,
2013-04-01 00:54:00,59.2,26.9,29.73,WSW,244,3.0,6.0,29,0.00,,,-99.99,Weather View 32 v60,2013-04-01 04:54:00,
2013-04-01 00:59:00,59.2,26.9,29.73,WNW,287,0.0,6.0,29,0.00,,,-99.99,Weather View 32 v60,2013-04-01 04:59:00,
2013-04-01 01:04:00,59.2,26.9,29.73,WNW,287,0.0,6.0,29,0.00,,,-99.99,Weather View 32 v60,2013-04-01 05:04:00,
2013-04-01 01:09:00,59.0,26.7,29.73,WNW,287,0.0,6.0,29,0.00,,,-99.99,Weather View 32 v60,2013-04-01 05:09:00,
2013-04-01 01:19:00,58.6,26.4,29.73,WNW,287,0.0,6.0,29,0.00,,,-99.99,Weather View 32 v60,2013-04-01 05:19:00,
2013-04-01 01:24:00,58.6,26.4,29.73,WNW,287,0.0,6.0,29,0.00,,,-99.99,Weather View 32 v60,2013-04-01 05:24:00,
2013-04-01 01:29:00,58.5,26.3,29.73,SSE,149,0.0,6.0,29,0.00,,,-99.99,Weather View 32 v60,2013-04-01 05:29:00,
2013-04-01 01:34:00,58.5,26.3,29.73,SSE,149,0.0,6.0,29,0.00,,,-99.99,Weather View 32 v60,2013-04-01 05:34:00,
2013-04-01 01:44:00,58.5,26.3,29.73,WSW,253,3.0,6.0,29,0.00,,,-99.99,Weather View 32 v60,2013-04-01 05:44:00,
2013-04-01 01:49:00,58.3,26.1,29.73,WSW,253,0.0,6.0,29,0.00,,,-99.99,Weather View 32 v60,2013-04-01 05:49:00,
2013-04-01 01:59:00,58.3,26.9,29.73,WSW,253,0.0,5.0,30,0.00,,,-99.99,Weather View 32 v60,2013-04-01 05:59:00,
2013-04-01 02:04:00,58.1,26.8,29.73,WSW,253,0.0,5.0,30,0.00,,,-99.99,Weather View 32 v60,2013-04-01 06:04:00,
2013-04-01 02:14:00,58.1,26.8,29.73,West,270,0.0,5.0,30,0.00,,,-99.99,Weather View 32 v60,2013-04-01 06:14:00,
2013-04-01 02:19:00,58.1,27.6,29.73,West,277,0.0,5.0,31,0.00,,,-99.99,Weather View 32 v60,2013-04-01 06:19:00,
2013-04-01 02:29:00,58.1,27.6,29.73,NNW,344,0.0,5.0,31,0.00,,,-99.99,Weather View 32 v60,2013-04-01 06:29:00,
2013-04-01 02:39:00,57.9,27.4,29.73,NNW,344,0.0,5.0,31,0.00,,,-99.99,Weather View 32 v60,2013-04-01 06:39:00,
2013-04-01 02:44:00,57.9,27.4,29.73,NNW,344,0.0,4.0,31,0.00,,,-99.99,Weather View 32 v60,2013-04-01 06:44:00,
2013-04-01 02:54:00,57.9,28.2,29.73,NNW,344,0.0,4.0,32,0.00,,,-99.99,Weather View 32 v60,2013-04-01 06:54:00,
2013-04-01 02:59:00,57.9,28.2,29.73,NNW,344,0.0,4.0,32,0.00,,,-99.99,Weather View 32 v60,2013-04-01 06:59:00,
2013-04-01 03:04:00,57.9,28.2,29.73,NNW,344,0.0,4.0,32,0.00,,,-99.99,Weather View 32 v60,2013-04-01 07:04:00,
2013-04-01 03:14:00,57.7,28.0,29.73,NNW,344,0.0,4.0,32,0.00,,,-99.99,Weather View 32 v60,2013-04-01 07:14:00,
2013-04-01 03:19:00,57.7,28.0,29.73,NNW,344,0.0,4.0,32,0.00,,,-99.99,Weather View 32 v60,2013-04-01 07:19:00,
2013-04-01 03:24:00,57.7,28.8,29.73,NNW,344,0.0,4.0,33,0.00,,,-99.99,Weather View 32 v60,2013-04-01 07:24:00,
2013-04-01 03:29:00,57.7,28.8,29.73,North,351,4.0,4.0,33,0.00,,,-99.99,Weather View 32 v60,2013-04-01 07:29:00,
2013-04-01 03:39:00,57.7,29.5,29.73,NW,320,0.0,4.0,34,0.00,,,-99.99,Weather View 32 v60,2013-04-01 07:39:00,
2013-04-01 03:44:00,57.7,29.5,29.73,NW,320,0.0,4.0,34,0.00,,,-99.99,Weather View 32 v60,2013-04-01 07:44:00,
2013-04-01 03:49:00,57.7,29.5,29.73,NW,320,0.0,4.0,34,0.00,,,-99.99,Weather View 32 v60,2013-04-01 07:49:00,
2013-04-01 03:59:00,57.6,29.3,29.73,NW,320,0.0,4.0,34,0.00,,,-99.99,Weather View 32 v60,2013-04-01 07:59:00,
2013-04-01 04:04:00,57.4,29.2,29.73,NW,320,0.0,4.0,34,0.00,,,-99.99,Weather View 32 v60,2013-04-01 08:04:00,
2013-04-01 04:09:00,57.4,29.2,29.73,NW,320,0.0,4.0,34,0.00,,,-99.99,Weather View 32 v60,2013-04-01 08:09:00,
2013-04-01 04:19:00,57.4,29.2,29.73,NW,320,0.0,4.0,34,0.00,,,-99.99,Weather View 32 v60,2013-04-01 08:19:00,
2013-04-01 04:24:00,57.2,29.0,29.73,NW,320,0.0,4.0,34,0.00,,,-99.99,Weather View 32 v60,2013-04-01 08:24:00,
2013-04-01 04:34:00,56.8,28.7,29.73,NW,320,0.0,3.0,34,0.00,,,-99.99,Weather View 32 v60,2013-04-01 08:34:00,
2013-04-01 04:44:00,56.7,28.6,29.73,NW,320,0.0,0.0,34,0.00,,,-99.99,Weather View 32 v60,2013-04-01 08:44:00,
2013-04-01 04:49:00,56.7,28.6,29.73,NW,320,0.0,0.0,34,0.00,,,-99.99,Weather View 32 v60,2013-04-01 08:49:00,
2013-04-01 04:59:00,56.3,28.2,29.73,NW,320,0.0,0.0,34,0.00,,,-99.99,Weather View 32 v60,2013-04-01 08:59:00,
2013-04-01 05:05:00,56.1,28.8,29.73,NW,320,0.0,0.0,35,0.00,,,-99.99,Weather View 32 v60,2013-04-01 09:05:00,
2013-04-01 05:14:00,55.9,28.6,29.73,NW,320,0.0,0.0,35,0.00,,,-99.99,Weather View 32 v60,2013-04-01 09:14:00,
2013-04-01 05:24:00,55.6,28.3,29.73,NW,320,0.0,0.0,35,0.00,,,-99.99,Weather View 32 v60,2013-04-01 09:24:00,
2013-04-01 05:34:00,55.4,28.1,29.73,NW,320,0.0,0.0,35,0.00,,,-99.99,Weather View 32 v60,2013-04-01 09:34:00,
2013-04-01 05:44:00,55.0,27.8,29.73,NW,320,0.0,0.0,35,0.00,,,-99.99,Weather View 32 v60,2013-04-01 09:44:00,
2013-04-01 05:54:00,54.7,27.5,29.76,NW,320,0.0,0.0,35,0.00,,,-99.99,Weather View 32 v60,2013-04-01 09:54:00,
2013-04-01 06:04:00,54.3,27.2,29.76,NW,320,0.0,0.0,35,0.00,,,-99.99,Weather View 32 v60,2013-04-01 10:04:00,
2013-04-01 06:09:00,54.1,27.7,29.76,NW,320,0.0,0.0,36,0.00,,,-99.99,Weather View 32 v60,2013-04-01 10:09:00,
2013-04-01 06:19:00,53.8,27.4,29.76,NW,320,0.0,0.0,36,0.00,,,-99.99,Weather View 32 v60,2013-04-01 10:19:00,
2013-04-01 06:24:00,53.4,27.1,29.76,NW,320,0.0,0.0,36,0.00,,,-99.99,Weather View 32 v60,2013-04-01 10:24:00,
2013-04-01 06:29:00,53.4,27.1,29.76,NW,320,0.0,0.0,36,0.00,,,-99.99,Weather View 32 v60,2013-04-01 10:29:00,
2013-04-01 06:39:00,53.2,26.9,29.76,NW,320,0.0,0.0,36,0.00,,,-99.99,Weather View 32 v60,2013-04-01 10:39:00,
2013-04-01 06:49:00,53.1,26.8,29.76,NW,320,0.0,0.0,36,0.00,,,-99.99,Weather View 32 v60,2013-04-01 10:49:00,
2013-04-01 06:59:00,52.7,26.4,29.76,NW,320,0.0,0.0,36,0.00,,,-99.99,Weather View 32 v60,2013-04-01 10:59:00,
2013-04-01 07:07:00,52.5,26.3,29.76,NW,320,0.0,0.0,36,0.00,,,-99.99,Weather View 32 v60,2013-04-01 11:07:00,
2013-04-01 07:14:00,52.2,26.0,29.76,NW,320,0.0,0.0,36,0.00,,,-99.99,Weather View 32 v60,2013-04-01 11:14:00,
2013-04-01 07:19:00,52.0,25.8,29.76,NW,320,0.0,0.0,36,0.00,,,-99.99,Weather View 32 v60,2013-04-01 11:19:00,
2013-04-01 07:24:00,51.8,25.6,29.76,NW,320,0.0,0.0,36,0.00,,,-99.99,Weather View 32 v60,2013-04-01 11:24:00,
2013-04-01 07:29:00,51.8,25.6,29.76,NW,320,0.0,0.0,36,0.00,,,-99.99,Weather View 32 v60,2013-04-01 11:29:00,
2013-04-01 07:39:00,51.4,26.0,29.79,NW,320,0.0,0.0,37,0.00,,,-99.99,Weather View 32 v60,2013-04-01 11:39:00,
2013-04-01 07:44:00,51.4,26.0,29.79,NW,320,0.0,0.0,37,0.00,,,-99.99,Weather View 32 v60,2013-04-01 11:44:00,
2013-04-01 07:54:00,51.3,25.8,29.79,NW,320,0.0,0.0,37,0.00,,,-99.99,Weather View 32 v60,2013-04-01 11:54:00,
2013-04-01 07:59:00,51.3,25.8,29.79,NW,320,0.0,0.0,37,0.00,,,-99.99,Weather View 32 v60,2013-04-01 11:59:00,
2013-04-01 08:07:00,51.3,25.8,29.79,NW,320,0.0,0.0,37,0.00,,,-99.99,Weather View 32 v60,2013-04-01 12:07:00,
2013-04-01 08:14:00,51.6,26.1,29.79,NW,320,0.0,0.0,37,0.00,,,-99.99,Weather View 32 v60,2013-04-01 12:14:00,
2013-04-01 08:29:00,52.0,26.5,29.82,NW,320,0.0,0.0,37,0.00,,,-99.99,Weather View 32 v60,2013-04-01 12:29:00,
2013-04-01 08:39:00,52.5,27.6,29.82,NW,320,0.0,0.0,38,0.00,,,-99.99,Weather View 32 v60,2013-04-01 12:39:00,
2013-04-01 08:44:00,52.9,27.9,29.82,NW,320,0.0,0.0,38,0.00,,,-99.99,Weather View 32 v60,2013-04-01 12:44:00,
2013-04-01 08:54:00,53.8,28.7,29.82,South,180,0.0,3.0,38,0.00,,,-99.99,Weather View 32 v60,2013-04-01 12:54:00,
2013-04-01 09:00:00,54.1,29.0,29.82,West,275,0.0,4.0,38,0.00,,,-99.99,Weather View 32 v60,2013-04-01 13:00:00,
2013-04-01 09:08:00,54.7,29.5,29.82,West,276,4.0,4.0,38,0.00,,,-99.99,Weather View 32 v60,2013-04-01 13:08:00,
2013-04-01 09:14:00,55.8,31.1,29.82,WSW,240,4.0,4.0,39,0.00,,,-99.99,Weather View 32 v60,2013-04-01 13:14:00,
2013-04-01 09:19:00,56.1,31.4,29.82,SSW,202,0.0,4.0,39,0.00,,,-99.99,Weather View 32 v60,2013-04-01 13:19:00,
2013-04-01 09:29:00,57.2,31.8,29.82,SSW,202,0.0,4.0,38,0.00,,,-99.99,Weather View 32 v60,2013-04-01 13:29:00,
2013-04-01 09:34:00,57.6,32.1,29.82,West,264,3.0,5.0,38,0.00,,,-99.99,Weather View 32 v60,2013-04-01 13:34:00,
2013-04-01 09:39:00,58.1,31.9,29.82,NNW,334,0.0,5.0,37,0.00,,,-99.99,Weather View 32 v60,2013-04-01 13:39:00,
2013-04-01 09:44:00,58.8,31.9,29.82,WNW,287,4.0,5.0,36,0.00,,,-99.99,Weather View 32 v60,2013-04-01 13:44:00,
2013-04-01 09:54:00,59.7,31.2,29.82,NE,47,0.0,5.0,34,0.00,,,-99.99,Weather View 32 v60,2013-04-01 13:54:00,
2013-04-01 10:00:00,60.4,31.1,29.82,SW,225,0.0,5.0,33,0.00,,,-99.99,Weather View 32 v60,2013-04-01 14:00:00,
2013-04-01 10:09:00,61.0,30.1,29.82,South,179,3.0,5.0,31,0.00,,,-99.99,Weather View 32 v60,2013-04-01 14:09:00,
2013-04-01 10:14:00,62.2,27.8,29.82,NNW,337,0.0,5.0,27,0.00,,,-99.99,Weather View 32 v60,2013-04-01 14:14:00,
2013-04-01 10:24:00,63.3,25.8,29.82,SW,233,4.0,5.0,24,0.00,,,-99.99,Weather View 32 v60,2013-04-01 14:24:00,
2013-04-01 10:29:00,63.7,25.1,29.82,WSW,250,0.0,5.0,23,0.00,,,-99.99,Weather View 32 v60,2013-04-01 14:29:00,
2013-04-01 10:34:00,64.0,25.4,29.82,SE,125,0.0,5.0,23,0.00,,,-99.99,Weather View 32 v60,2013-04-01 14:34:00,
2013-04-01 10:39:00,64.4,22.4,29.82,WSW,239,5.0,5.0,20,0.00,,,-99.99,Weather View 32 v60,2013-04-01 14:39:00,
2013-04-01 10:49:00,65.1,16.2,29.82,North,351,4.0,5.0,15,0.00,,,-99.99,Weather View 32 v60,2013-04-01 14:49:00,
2013-04-01 10:54:00,65.7,19.6,29.82,West,275,0.0,5.0,17,0.00,,,-99.99,Weather View 32 v60,2013-04-01 14:54:00,
2013-04-01 10:59:00,65.5,16.5,29.82,West,275,5.0,5.0,15,0.00,,,-99.99,Weather View 32 v60,2013-04-01 14:59:00,
2013-04-01 11:09:00,65.8,16.8,29.82,WNW,282,0.0,6.0,15,0.00,,,-99.99,Weather View 32 v60,2013-04-01 15:09:00,
2013-04-01 11:19:00,66.4,17.2,29.82,SSE,166,4.0,6.0,15,0.00,,,-99.99,Weather View 32 v60,2013-04-01 15:19:00,
2013-04-01 11:24:00,67.1,17.8,29.82,SW,226,0.0,6.0,15,0.00,,,-99.99,Weather View 32 v60,2013-04-01 15:24:00,
2013-04-01 11:34:00,67.6,18.2,29.82,West,269,3.0,6.0,15,0.00,,,-99.99,Weather View 32 v60,2013-04-01 15:34:00,
2013-04-01 11:39:00,68.2,18.7,29.82,North,351,0.0,6.0,15,0.00,,,-99.99,Weather View 32 v60,2013-04-01 15:39:00,
2013-04-01 11:44:00,69.1,17.8,29.82,NNE,12,3.0,6.0,14,0.00,,,-99.99,Weather View 32 v60,2013-04-01 15:44:00,
2013-04-01 11:54:00,69.4,18.1,29.82,WNW,287,4.0,7.0,14,0.00,,,-99.99,Weather View 32 v60,2013-04-01 15:54:00,
2013-04-01 12:04:00,70.2,18.6,29.82,SW,219,3.0,7.0,14,0.00,,,-99.99,Weather View 32 v60,2013-04-01 16:04:00,
2013-04-01 12:09:00,70.3,18.8,29.82,West,280,5.0,7.0,14,0.00,,,-99.99,Weather View 32 v60,2013-04-01 16:09:00,
2013-04-01 12:14:00,70.7,19.1,29.82,NNE,18,0.0,7.0,14,0.00,,,-99.99,Weather View 32 v60,2013-04-01 16:14:00,
2013-04-01 12:24:00,71.4,19.6,29.82,NW,318,4.0,7.0,14,0.00,,,-99.99,Weather View 32 v60,2013-04-01 16:24:00,
2013-04-01 12:34:00,71.4,19.6,29.82,SE,134,4.0,9.0,14,0.00,,,-99.99,Weather View 32 v60,2013-04-01 16:34:00,
2013-04-01 12:44:00,71.2,19.5,29.82,NW,313,6.0,10.0,14,0.00,,,-99.99,Weather View 32 v60,2013-04-01 16:44:00,
2013-04-01 12:49:00,71.2,19.5,29.82,SSW,195,6.0,10.0,14,0.00,,,-99.99,Weather View 32 v60,2013-04-01 16:49:00,
2013-04-01 13:00:00,72.0,20.1,29.82,West,267,9.0,10.0,14,0.00,,,-99.99,Weather View 32 v60,2013-04-01 17:00:00,
2013-04-01 13:09:00,73.0,19.2,29.82,NNW,338,4.0,10.0,13,0.00,,,-99.99,Weather View 32 v60,2013-04-01 17:09:00,
2013-04-01 13:14:00,73.4,19.5,29.82,WNW,291,6.0,10.0,13,0.00,,,-99.99,Weather View 32 v60,2013-04-01 17:14:00,
2013-04-01 13:19:00,73.0,19.2,29.82,SW,226,8.0,11.0,13,0.00,,,-99.99,Weather View 32 v60,2013-04-01 17:19:00,
2013-04-01 13:24:00,73.0,19.2,29.82,West,279,6.0,11.0,13,0.00,,,-99.99,Weather View 32 v60,2013-04-01 17:24:00,
2013-04-01 13:34:00,72.9,19.0,29.82,West,280,4.0,11.0,13,0.00,,,-99.99,Weather View 32 v60,2013-04-01 17:34:00,
2013-04-01 13:39:00,73.4,19.5,29.82,WNW,302,4.0,11.0,13,0.00,,,-99.99,Weather View 32 v60,2013-04-01 17:39:00,
2013-04-01 13:49:00,73.6,19.6,29.79,WNW,282,3.0,11.0,13,0.00,,,-99.99,Weather View 32 v60,2013-04-01 17:49:00,
2013-04-01 13:54:00,73.9,19.9,29.79,WNW,293,8.0,11.0,13,0.00,,,-99.99,Weather View 32 v60,2013-04-01 17:54:00,
2013-04-01 14:04:00,73.6,19.6,29.79,NW,323,4.0,11.0,13,0.00,,,-99.99,Weather View 32 v60,2013-04-01 18:04:00,
2013-04-01 14:09:00,74.1,20.0,29.79,WSW,248,4.0,11.0,13,0.00,,,-99.99,Weather View 32 v60,2013-04-01 18:09:00,
2013-04-01 14:14:00,74.8,20.6,29.79,WSW,238,4.0,11.0,13,0.00,,,-99.99,Weather View 32 v60,2013-04-01 18:14:00,
2013-04-01 14:19:00,75.7,21.3,29.79,NW,317,4.0,10.0,13,0.00,,,-99.99,Weather View 32 v60,2013-04-01 18:19:00,
2013-04-01 14:24:00,75.7,21.3,29.79,WNW,294,5.0,10.0,13,0.00,,,-99.99,Weather View 32 v60,2013-04-01 18:24:00,
2013-04-01 14:34:00,75.6,21.1,29.79,NW,312,7.0,10.0,13,0.00,,,-99.99,Weather View 32 v60,2013-04-01 18:34:00,
2013-04-01 14:44:00,74.8,20.6,29.79,WNW,293,11.0,11.0,13,0.00,,,-99.99,Weather View 32 v60,2013-04-01 18:44:00,
2013-04-01 14:54:00,74.1,20.0,29.79,NW,324,6.0,11.0,13,0.00,,,-99.99,Weather View 32 v60,2013-04-01 18:54:00,
2013-04-01 14:59:00,75.6,21.1,29.79,NNE,27,7.0,11.0,13,0.00,,,-99.99,Weather View 32 v60,2013-04-01 18:59:00,
2013-04-01 15:09:00,75.9,21.4,29.79,SE,132,4.0,11.0,13,0.00,,,-99.99,Weather View 32 v60,2013-04-01 19:09:00,
2013-04-01 15:14:00,77.0,22.3,29.79,WNW,284,4.0,11.0,13,0.00,,,-99.99,Weather View 32 v60,2013-04-01 19:14:00,
2013-04-01 15:19:00,76.5,21.9,29.79,WNW,282,7.0,11.0,13,0.00,,,-99.99,Weather View 32 v60,2013-04-01 19:19:00,
2013-04-01 15:29:00,76.8,22.1,29.79,WNW,293,5.0,11.0,13,0.00,,,-99.99,Weather View 32 v60,2013-04-01 19:29:00,
2013-04-01 15:34:00,75.7,21.3,29.79,NNE,14,3.0,11.0,13,0.00,,,-99.99,Weather View 32 v60,2013-04-01 19:34:00,
2013-04-01 15:44:00,76.1,21.6,29.79,NW,306,4.0,11.0,13,0.00,,,-99.99,Weather View 32 v60,2013-04-01 19:44:00,
2013-04-01 15:49:00,75.6,21.1,29.79,North,6,5.0,11.0,13,0.00,,,-99.99,Weather View 32 v60,2013-04-01 19:49:00,
2013-04-01 15:59:00,75.7,21.3,29.79,West,264,4.0,11.0,13,0.00,,,-99.99,Weather View 32 v60,2013-04-01 19:59:00,
2013-04-01 16:04:00,76.1,21.6,29.79,WNW,292,8.0,11.0,13,0.00,,,-99.99,Weather View 32 v60,2013-04-01 20:04:00,
2013-04-01 16:09:00,76.1,21.6,29.79,WNW,303,8.0,11.0,13,0.00,,,-99.99,Weather View 32 v60,2013-04-01 20:09:00,
2013-04-01 16:19:00,75.2,20.9,29.79,WSW,239,6.0,11.0,13,0.00,,,-99.99,Weather View 32 v60,2013-04-01 20:19:00,
2013-04-01 16:29:00,75.4,21.0,29.79,NW,314,7.0,11.0,13,0.00,,,-99.99,Weather View 32 v60,2013-04-01 20:29:00,
2013-04-01 16:34:00,75.6,21.1,29.79,WSW,257,4.0,11.0,13,0.00,,,-99.99,Weather View 32 v60,2013-04-01 20:34:00,
2013-04-01 16:44:00,72.7,18.9,29.79,West,277,5.0,11.0,13,0.00,,,-99.99,Weather View 32 v60,2013-04-01 20:44:00,
2013-04-01 16:49:00,72.0,20.1,29.79,SW,225,0.0,10.0,14,0.00,,,-99.99,Weather View 32 v60,2013-04-01 20:49:00,
2013-04-01 16:54:00,72.0,20.1,29.79,WNW,295,4.0,10.0,14,0.00,,,-99.99,Weather View 32 v60,2013-04-01 20:54:00,
2013-04-01 17:04:00,71.2,19.5,29.79,West,271,3.0,10.0,14,0.00,,,-99.99,Weather View 32 v60,2013-04-01 21:04:00,
2013-04-01 17:09:00,72.3,20.3,29.79,WNW,299,4.0,10.0,14,0.00,,,-99.99,Weather View 32 v60,2013-04-01 21:09:00,
2013-04-01 17:19:00,73.4,19.5,29.79,West,275,5.0,10.0,13,0.00,,,-99.99,Weather View 32 v60,2013-04-01 21:19:00,
2013-04-01 17:24:00,73.2,19.3,29.79,North,11,4.0,11.0,13,0.00,,,-99.99,Weather View 32 v60,2013-04-01 21:24:00,
2013-04-01 17:29:00,71.8,19.9,29.79,WNW,286,6.0,11.0,14,0.00,,,-99.99,Weather View 32 v60,2013-04-01 21:29:00,
2013-04-01 17:39:00,70.5,18.9,29.79,NW,308,3.0,11.0,14,0.00,,,-99.99,Weather View 32 v60,2013-04-01 21:39:00,
2013-04-01 17:44:00,70.2,18.6,29.79,NW,322,7.0,11.0,14,0.00,,,-99.99,Weather View 32 v60,2013-04-01 21:44:00,
2013-04-01 17:54:00,71.2,19.5,29.79,WNW,292,4.0,11.0,14,0.00,,,-99.99,Weather View 32 v60,2013-04-01 21:54:00,
2013-04-01 17:59:00,71.2,19.5,29.79,West,264,4.0,11.0,14,0.00,,,-99.99,Weather View 32 v60,2013-04-01 21:59:00,
2013-04-01 18:04:00,70.5,18.9,29.79,WNW,283,7.0,11.0,14,0.00,,,-99.99,Weather View 32 v60,2013-04-01 22:04:00,
2013-04-01 18:13:00,69.6,18.2,29.79,NNW,338,5.0,11.0,14,0.00,,,-99.99,Weather View 32 v60,2013-04-01 22:13:00,
2013-04-01 18:19:00,68.4,18.8,29.79,West,275,5.0,11.0,15,0.00,,,-99.99,Weather View 32 v60,2013-04-01 22:19:00,
2013-04-01 18:29:00,67.6,18.2,29.79,NNW,333,5.0,10.0,15,0.00,,,-99.99,Weather View 32 v60,2013-04-01 22:29:00,
2013-04-01 18:39:00,67.3,18.0,29.82,WSW,238,3.0,10.0,15,0.00,,,-99.99,Weather View 32 v60,2013-04-01 22:39:00,
2013-04-01 18:49:00,68.0,18.5,29.82,WNW,285,4.0,8.0,15,0.00,,,-99.99,Weather View 32 v60,2013-04-01 22:49:00,
2013-04-01 18:54:00,68.2,18.7,29.82,WNW,293,5.0,8.0,15,0.00,,,-99.99,Weather View 32 v60,2013-04-01 22:54:00,
2013-04-01 19:04:00,67.8,18.4,29.82,WSW,256,4.0,8.0,15,0.00,,,-99.99,Weather View 32 v60,2013-04-01 23:04:00,
2013-04-01 19:09:00,67.5,18.1,29.82,West,276,4.0,8.0,15,0.00,,,-99.99,Weather View 32 v60,2013-04-01 23:09:00,
2013-04-01 19:14:00,67.3,18.0,29.82,WSW,254,4.0,8.0,15,0.00,,,-99.99,Weather View 32 v60,2013-04-01 23:14:00,
2013-04-01 19:24:00,66.7,17.5,29.82,West,280,5.0,8.0,15,0.00,,,-99.99,Weather View 32 v60,2013-04-01 23:24:00,
2013-04-01 19:34:00,66.0,16.9,29.82,WSW,248,5.0,10.0,15,0.00,,,-99.99,Weather View 32 v60,2013-04-01 23:34:00,
2013-04-01 19:39:00,65.8,16.8,29.82,West,271,5.0,10.0,15,0.00,,,-99.99,Weather View 32 v60,2013-04-01 23:39:00,
2013-04-01 19:49:00,65.1,16.2,29.82,West,266,3.0,10.0,15,0.00,,,-99.99,Weather View 32 v60,2013-04-01 23:49:00,
2013-04-01 19:59:00,64.2,15.5,29.82,NW,313,3.0,10.0,15,0.00,,,-99.99,Weather View 32 v60,2013-04-01 23:59:00,
2013-04-01 20:04:00,63.9,15.2,29.82,West,280,3.0,10.0,15,0.00,,,-99.99,Weather View 32 v60,2013-04-02 00:04:00,
2013-04-01 20:14:00,63.1,16.1,29.82,NW,315,3.0,10.0,16,0.00,,,-99.99,Weather View 32 v60,2013-04-02 00:14:00,
2013-04-01 20:24:00,62.6,15.7,29.82,WNW,283,0.0,10.0,16,0.00,,,-99.99,Weather View 32 v60,2013-04-02 00:24:00,
2013-04-01 20:29:00,62.2,15.4,29.82,WNW,283,3.0,10.0,16,0.00,,,-99.99,Weather View 32 v60,2013-04-02 00:29:00,
2013-04-01 20:34:00,61.5,14.8,29.82,NW,319,4.0,7.0,16,0.00,,,-99.99,Weather View 32 v60,2013-04-02 00:34:00,
2013-04-01 20:44:00,61.0,14.4,29.82,NW,315,0.0,7.0,16,0.00,,,-99.99,Weather View 32 v60,2013-04-02 00:44:00,
2013-04-01 20:54:00,61.0,14.4,29.82,NW,320,3.0,6.0,16,0.00,,,-99.99,Weather View 32 v60,2013-04-02 00:54:00,
2013-04-01 20:59:00,60.8,14.2,29.82,NW,320,0.0,6.0,16,0.00,,,-99.99,Weather View 32 v60,2013-04-02 00:59:00,
2013-04-01 21:04:00,60.6,14.1,29.85,NW,320,0.0,6.0,16,0.00,,,-99.99,Weather View 32 v60,2013-04-02 01:04:00,
2013-04-01 21:09:00,60.3,13.8,29.85,NW,320,0.0,6.0,16,0.00,,,-99.99,Weather View 32 v60,2013-04-02 01:09:00,
2013-04-01 21:14:00,59.9,13.5,29.85,NW,312,4.0,5.0,16,0.00,,,-99.99,Weather View 32 v60,2013-04-02 01:14:00,
2013-04-01 21:24:00,60.1,13.7,29.85,North,10,5.0,7.0,16,0.00,,,-99.99,Weather View 32 v60,2013-04-02 01:24:00,
2013-04-01 21:29:00,60.4,13.9,29.85,WNW,299,5.0,7.0,16,0.00,,,-99.99,Weather View 32 v60,2013-04-02 01:29:00,
2013-04-01 21:34:00,60.6,14.1,29.85,NW,305,6.0,8.0,16,0.00,,,-99.99,Weather View 32 v60,2013-04-02 01:34:00,
2013-04-01 21:39:00,60.8,14.2,29.85,West,281,5.0,9.0,16,0.00,,,-99.99,Weather View 32 v60,2013-04-02 01:39:00,
2013-04-01 21:49:00,61.0,14.4,29.85,WNW,293,3.0,9.0,16,0.00,,,-99.99,Weather View 32 v60,2013-04-02 01:49:00,
2013-04-01 21:54:00,60.8,14.2,29.85,WNW,285,4.0,9.0,16,0.00,,,-99.99,Weather View 32 v60,2013-04-02 01:54:00,
2013-04-01 21:59:00,60.6,14.1,29.85,WNW,298,0.0,9.0,16,0.00,,,-99.99,Weather View 32 v60,2013-04-02 01:59:00,
2013-04-01 22:04:00,60.4,13.9,29.85,WNW,294,4.0,9.0,16,0.00,,,-99.99,Weather View 32 v60,2013-04-02 02:04:00,
2013-04-01 22:14:00,59.9,14.9,29.85,WNW,289,4.0,9.0,17,0.00,,,-99.99,Weather View 32 v60,2013-04-02 02:14:00,
2013-04-01 22:19:00,59.5,14.6,29.88,WNW,284,3.0,9.0,17,0.00,,,-99.99,Weather View 32 v60,2013-04-02 02:19:00,
2013-04-01 22:29:00,58.8,14.0,29.88,NW,318,3.0,9.0,17,0.00,,,-99.99,Weather View 32 v60,2013-04-02 02:29:00,
2013-04-01 22:34:00,58.5,13.7,29.88,WNW,303,0.0,9.0,17,0.00,,,-99.99,Weather View 32 v60,2013-04-02 02:34:00,
2013-04-01 22:44:00,57.9,13.3,29.88,NW,320,3.0,8.0,17,0.00,,,-99.99,Weather View 32 v60,2013-04-02 02:44:00,
2013-04-01 22:49:00,57.7,13.1,29.88,NE,51,0.0,5.0,17,0.00,,,-99.99,Weather View 32 v60,2013-04-02 02:49:00,
2013-04-01 22:54:00,57.4,12.8,29.88,WSW,243,4.0,5.0,17,0.00,,,-99.99,Weather View 32 v60,2013-04-02 02:54:00,
2013-04-01 22:59:00,57.2,12.7,29.88,West,262,4.0,5.0,17,0.00,,,-99.99,Weather View 32 v60,2013-04-02 02:59:00,
2013-04-01 23:04:00,57.2,12.7,29.88,NNW,329,4.0,5.0,17,0.00,,,-99.99,Weather View 32 v60,2013-04-02 03:04:00,
2013-04-01 23:14:00,57.4,12.8,29.88,NNE,12,0.0,5.0,17,0.00,,,-99.99,Weather View 32 v60,2013-04-02 03:14:00,
2013-04-01 23:19:00,57.4,12.8,29.88,ESE,117,0.0,5.0,17,0.00,,,-99.99,Weather View 32 v60,2013-04-02 03:19:00,
2013-04-01 23:29:00,57.0,12.6,29.88,ESE,117,0.0,5.0,17,0.00,,,-99.99,Weather View 32 v60,2013-04-02 03:29:00,
2013-04-01 23:39:00,56.7,12.3,29.88,ESE,117,0.0,5.0,17,0.00,,,-99.99,Weather View 32 v60,2013-04-02 03:39:00,
2013-04-01 23:44:00,56.5,12.1,29.88,ESE,117,0.0,5.0,17,0.00,,,-99.99,Weather View 32 v60,2013-04-02 03:44:00,
2013-04-01 23:54:00,56.3,12.0,29.88,ESE,117,0.0,5.0,17,0.00,,,-99.99,Weather View 32 v60,2013-04-02 03:54:00,